Time;durP1;ratioP1;P1;durP2;ratioP2;P2;SDS_P1;SDS_P2;PMS_P1;PMS_P2;Temp;Humidity;BMP_temperature;BMP_pressure;BME280_temperature;BME280_humidity;BME280_pressure;Samples;Min_cycle;Max_cycle;Signal;HPM_P1;HPM_P2
2023/08/05 00:01:09;;;;;;;188.87;54.80;;;;;;;;;;5053584;28;20442;-51
2023/08/05 00:03:35;;;;;;;191.33;56.40;;;;;;;;;;5052642;28;20408;-50
2023/08/05 00:06:01;;;;;;;190.00;55.27;;;;;;;;;;5052830;28;20410;-50
2023/08/05 00:08:26;;;;;;;191.60;55.77;;;;;;;;;;5052580;28;20438;-51
2023/08/05 00:10:53;;;;;;;189.17;53.57;;;;;;;;;;5053354;28;21016;-51
2023/08/05 00:13:19;;;;;;;191.95;56.10;;;;;;;;;;5053614;28;20500;-51
2023/08/05 00:15:45;;;;;;;190.95;55.28;;;;;;;;;;5053527;28;20178;-50
2023/08/05 00:18:11;;;;;;;189.68;54.67;;;;;;;;;;5052684;28;20224;-50
2023/08/05 00:20:37;;;;;;;190.13;55.10;;;;;;;;;;5053140;28;20493;-50
2023/08/05 00:23:03;;;;;;;191.90;57.13;;;;;;;;;;5053906;28;20423;-51
2023/08/05 00:25:29;;;;;;;191.13;55.47;;;;;;;;;;5053270;28;20481;-50
2023/08/05 00:27:55;;;;;;;189.47;55.53;;;;;;;;;;5053380;28;20915;-50
2023/08/05 00:30:21;;;;;;;192.80;56.87;;;;;;;;;;5052731;28;20498;-50
2023/08/05 00:32:47;;;;;;;189.27;56.20;;;;;;;;;;5052351;28;20417;-51
2023/08/05 00:35:13;;;;;;;190.17;54.67;;;;;;;;;;5052874;28;20414;-50
2023/08/05 00:37:39;;;;;;;188.63;54.77;;;;;;;;;;5053263;28;20935;-51
2023/08/05 00:40:05;;;;;;;191.35;55.20;;;;;;;;;;5048667;28;20589;-51
2023/08/05 00:42:31;;;;;;;191.60;57.58;;;;;;;;;;5053083;28;20206;-50
2023/08/05 00:44:57;;;;;;;189.07;54.80;;;;;;;;;;5053022;28;20178;-51
2023/08/05 00:47:23;;;;;;;189.47;55.07;;;;;;;;;;5052093;28;20534;-51
2023/08/05 00:49:53;;;;;;;194.80;59.37;;;;;;;;;;5049945;28;20805;-51
2023/08/05 00:52:21;;;;;;;191.20;55.92;;;;;;;;;;5053163;28;20494;-52
2023/08/05 00:54:47;;;;;;;192.02;56.88;;;;;;;;;;5052845;28;20263;-51
2023/08/05 00:57:13;;;;;;;190.77;55.80;;;;;;;;;;5052917;28;20259;-51
2023/08/05 00:59:39;;;;;;;192.48;56.95;;;;;;;;;;5051761;28;20539;-50
2023/08/05 01:02:06;;;;;;;190.47;54.97;;;;;;;;;;5051219;28;20180;-52
2023/08/05 01:04:32;;;;;;;193.90;57.28;;;;;;;;;;5051888;28;20410;-51
2023/08/05 01:06:59;;;;;;;191.98;56.65;;;;;;;;;;5052462;28;20206;-51
2023/08/05 01:09:25;;;;;;;191.43;55.63;;;;;;;;;;5051886;28;20249;-51
2023/08/05 01:11:51;;;;;;;189.95;54.92;;;;;;;;;;5052238;28;20281;-51
2023/08/05 01:14:17;;;;;;;193.20;56.87;;;;;;;;;;5051506;28;20207;-50
2023/08/05 01:16:43;;;;;;;189.43;54.50;;;;;;;;;;5052374;28;20438;-52
2023/08/05 01:19:12;;;;;;;189.00;54.10;;;;;;;;;;5052213;28;20236;-51
2023/08/05 01:21:43;;;;;;;189.68;54.50;;;;;;;;;;5052264;28;20493;-51
2023/08/05 01:24:27;;;;;;;188.98;54.05;;;;;;;;;;5052798;28;20180;-51
2023/08/05 01:26:54;;;;;;;191.48;55.17;;;;;;;;;;5046098;28;20190;-50
2023/08/05 01:29:20;;;;;;;191.75;56.17;;;;;;;;;;5051208;28;20180;-51
2023/08/05 01:31:46;;;;;;;189.90;54.00;;;;;;;;;;5051925;28;20274;-50
2023/08/05 01:34:12;;;;;;;191.32;56.60;;;;;;;;;;5051856;28;20768;-51
2023/08/05 01:36:38;;;;;;;190.17;55.40;;;;;;;;;;5051290;28;20175;-51
2023/08/05 01:39:04;;;;;;;189.30;53.73;;;;;;;;;;5047457;28;20805;-49
2023/08/05 01:41:30;;;;;;;189.37;54.17;;;;;;;;;;5051589;28;20437;-51
2023/08/05 01:43:56;;;;;;;189.87;54.17;;;;;;;;;;5051161;28;20414;-51
2023/08/05 01:46:22;;;;;;;190.67;54.30;;;;;;;;;;5051854;28;20410;-50
2023/08/05 01:48:48;;;;;;;190.37;54.20;;;;;;;;;;5052017;28;20415;-50
2023/08/05 01:51:14;;;;;;;190.00;54.57;;;;;;;;;;5051631;28;20895;-49
2023/08/05 01:53:40;;;;;;;190.80;55.10;;;;;;;;;;5051868;28;20403;-50
2023/08/05 01:56:06;;;;;;;190.50;54.80;;;;;;;;;;5051730;28;20408;-51
2023/08/05 01:58:32;;;;;;;188.13;53.57;;;;;;;;;;5050959;28;20587;-51
2023/08/05 02:00:58;;;;;;;189.27;54.43;;;;;;;;;;5051650;28;20868;-51
2023/08/05 02:03:24;;;;;;;191.17;54.80;;;;;;;;;;5051623;28;21162;-49
2023/08/05 02:05:50;;;;;;;191.50;55.03;;;;;;;;;;5051711;28;20425;-51
2023/08/05 02:08:15;;;;;;;190.53;54.30;;;;;;;;;;5052067;28;20418;-50
2023/08/05 02:10:41;;;;;;;190.83;55.00;;;;;;;;;;5051060;28;20496;-51
2023/08/05 02:13:08;;;;;;;189.57;54.83;;;;;;;;;;5051638;28;20766;-51
2023/08/05 02:15:34;;;;;;;189.50;54.38;;;;;;;;;;5051566;28;20262;-50
2023/08/05 02:18:00;;;;;;;190.00;54.33;;;;;;;;;;5051579;28;20332;-50
2023/08/05 02:20:26;;;;;;;190.18;53.60;;;;;;;;;;5051044;28;20431;-51
2023/08/05 02:22:52;;;;;;;189.93;54.33;;;;;;;;;;5051523;28;20217;-51
2023/08/05 02:25:18;;;;;;;189.30;53.97;;;;;;;;;;5050831;28;20400;-51
2023/08/05 02:27:43;;;;;;;191.27;54.63;;;;;;;;;;5051402;28;20496;-51
2023/08/05 02:30:10;;;;;;;189.70;54.07;;;;;;;;;;5051216;28;20425;-51
2023/08/05 02:32:36;;;;;;;190.18;54.53;;;;;;;;;;5055470;28;20962;-50
2023/08/05 02:35:02;;;;;;;191.60;55.67;;;;;;;;;;5055043;28;20171;-50
2023/08/05 02:37:27;;;;;;;191.07;54.80;;;;;;;;;;5055362;28;20448;-51
2023/08/05 02:39:53;;;;;;;194.03;58.03;;;;;;;;;;5055095;28;20522;-51
2023/08/05 02:42:19;;;;;;;192.35;56.40;;;;;;;;;;5055380;28;20730;-51
2023/08/05 02:44:45;;;;;;;189.97;53.60;;;;;;;;;;5055361;28;20590;-51
2023/08/05 02:47:11;;;;;;;189.87;54.57;;;;;;;;;;5055378;28;20441;-49
2023/08/05 02:49:37;;;;;;;190.10;54.50;;;;;;;;;;5054745;28;20406;-51
2023/08/05 02:52:03;;;;;;;188.30;53.13;;;;;;;;;;5055282;28;20417;-51
2023/08/05 02:54:29;;;;;;;189.57;54.33;;;;;;;;;;5054697;28;20412;-50
2023/08/05 02:56:55;;;;;;;190.20;54.23;;;;;;;;;;5055135;28;20638;-51
2023/08/05 02:59:21;;;;;;;192.20;55.70;;;;;;;;;;5054876;28;20466;-50
2023/08/05 03:01:47;;;;;;;193.73;58.03;;;;;;;;;;5051229;28;20613;-51
2023/08/05 03:04:13;;;;;;;190.47;55.07;;;;;;;;;;5053786;28;20416;-51
2023/08/05 03:06:39;;;;;;;189.77;54.27;;;;;;;;;;5054993;28;20906;-51
2023/08/05 03:09:05;;;;;;;186.90;52.13;;;;;;;;;;5053683;28;20917;-50
2023/08/05 03:11:31;;;;;;;188.37;54.00;;;;;;;;;;5051874;28;20937;-50
2023/08/05 03:13:57;;;;;;;189.18;54.08;;;;;;;;;;5054686;28;20466;-50
2023/08/05 03:16:23;;;;;;;189.00;54.30;;;;;;;;;;5054756;28;20176;-49
2023/08/05 03:18:49;;;;;;;190.50;56.13;;;;;;;;;;5054502;28;20201;-50
2023/08/05 03:21:15;;;;;;;187.60;53.00;;;;;;;;;;5054274;28;20421;-47
2023/08/05 03:23:41;;;;;;;189.27;54.10;;;;;;;;;;5054600;28;20445;-48
2023/08/05 03:26:07;;;;;;;188.50;53.73;;;;;;;;;;5054553;28;20406;-48
2023/08/05 03:28:33;;;;;;;189.48;54.45;;;;;;;;;;5054401;28;20414;-47
2023/08/05 03:30:59;;;;;;;187.52;53.35;;;;;;;;;;5054206;28;20285;-48
2023/08/05 03:33:25;;;;;;;187.45;52.83;;;;;;;;;;5054216;28;20654;-48
2023/08/05 03:35:51;;;;;;;188.03;53.90;;;;;;;;;;5053338;28;20245;-48
2023/08/05 03:38:18;;;;;;;188.87;53.27;;;;;;;;;;5054328;28;20890;-50
2023/08/05 03:40:44;;;;;;;190.80;54.25;;;;;;;;;;5053968;28;20768;-47
2023/08/05 03:43:10;;;;;;;191.30;54.88;;;;;;;;;;5052944;28;20198;-48
2023/08/05 03:45:36;;;;;;;190.55;54.50;;;;;;;;;;5054100;28;20199;-48
2023/08/05 03:48:02;;;;;;;190.97;54.07;;;;;;;;;;5054060;28;20625;-49
2023/08/05 03:50:28;;;;;;;192.73;54.30;;;;;;;;;;5052735;28;20460;-51
2023/08/05 03:52:54;;;;;;;192.30;55.05;;;;;;;;;;5054297;28;20415;-49
2023/08/05 03:55:21;;;;;;;190.38;54.17;;;;;;;;;;5053968;28;20182;-49
2023/08/05 03:57:47;;;;;;;191.32;54.25;;;;;;;;;;5051533;28;20213;-47
2023/08/05 04:00:13;;;;;;;190.95;54.25;;;;;;;;;;5050256;28;20226;-49
2023/08/05 04:02:41;;;;;;;192.27;54.67;;;;;;;;;;5053169;28;20262;-49
2023/08/05 04:05:07;;;;;;;190.93;54.05;;;;;;;;;;5052738;28;20232;-51
2023/08/05 04:07:34;;;;;;;192.18;55.17;;;;;;;;;;5053720;28;20186;-49
2023/08/05 04:10:00;;;;;;;189.38;53.03;;;;;;;;;;5049238;28;20741;-51
2023/08/05 04:12:26;;;;;;;190.20;54.00;;;;;;;;;;5053525;28;20269;-50
2023/08/05 04:14:53;;;;;;;190.65;54.03;;;;;;;;;;5053539;28;20208;-50
2023/08/05 04:17:21;;;;;;;190.18;54.25;;;;;;;;;;5052467;28;20167;-49
2023/08/05 04:19:48;;;;;;;192.30;56.22;;;;;;;;;;5053286;28;20187;-47
2023/08/05 04:22:18;;;;;;;189.73;54.60;;;;;;;;;;5053444;28;20546;-49
2023/08/05 04:24:45;;;;;;;189.70;53.50;;;;;;;;;;5053492;28;20243;-48
2023/08/05 04:27:11;;;;;;;188.65;53.42;;;;;;;;;;5053457;28;20228;-48
2023/08/05 04:29:37;;;;;;;190.27;54.00;;;;;;;;;;5052956;28;20721;-54
2023/08/05 04:32:03;;;;;;;189.55;53.92;;;;;;;;;;5052680;28;20214;-48
2023/08/05 04:34:35;;;;;;;190.80;54.72;;;;;;;;;;5053332;28;20183;-48
2023/08/05 04:37:15;;;;;;;190.60;53.97;;;;;;;;;;5050733;28;20232;-47
2023/08/05 04:39:41;;;;;;;193.68;58.42;;;;;;;;;;5043600;28;20190;-48
2023/08/05 04:42:07;;;;;;;190.60;54.50;;;;;;;;;;5048856;28;20246;-48
2023/08/05 04:44:33;;;;;;;187.67;52.47;;;;;;;;;;5053259;28;20402;-48
2023/08/05 04:46:59;;;;;;;188.30;53.37;;;;;;;;;;5052177;28;20412;-49
2023/08/05 04:49:25;;;;;;;189.37;55.13;;;;;;;;;;5052817;28;20414;-50
2023/08/05 04:51:51;;;;;;;188.00;52.50;;;;;;;;;;5052684;28;20433;-47
2023/08/05 04:54:17;;;;;;;190.17;54.07;;;;;;;;;;5052264;28;20414;-48
2023/08/05 04:56:43;;;;;;;189.70;53.67;;;;;;;;;;5049527;28;20443;-49
2023/08/05 04:59:09;;;;;;;191.70;55.07;;;;;;;;;;5048738;28;20449;-49
2023/08/05 05:01:35;;;;;;;189.47;53.87;;;;;;;;;;5052182;28;20417;-48
2023/08/05 05:04:01;;;;;;;188.87;53.60;;;;;;;;;;5052796;28;20406;-49
2023/08/05 05:06:27;;;;;;;188.85;53.38;;;;;;;;;;5048808;28;21017;-49
2023/08/05 05:08:53;;;;;;;187.43;53.33;;;;;;;;;;5052638;28;20266;-48
2023/08/05 05:11:19;;;;;;;189.23;54.47;;;;;;;;;;5052233;28;21047;-52
2023/08/05 05:13:50;;;;;;;186.87;53.00;;;;;;;;;;5051939;28;20761;-48
2023/08/05 05:16:16;;;;;;;188.82;54.25;;;;;;;;;;5052423;28;20410;-49
2023/08/05 05:18:42;;;;;;;188.30;53.73;;;;;;;;;;5052513;28;20276;-50
2023/08/05 05:21:07;;;;;;;187.60;54.00;;;;;;;;;;5052145;28;20429;-48
2023/08/05 05:23:33;;;;;;;191.70;56.40;;;;;;;;;;5052245;28;20406;-48
2023/08/05 05:25:59;;;;;;;188.23;54.17;;;;;;;;;;5052272;28;20455;-52
2023/08/05 05:28:25;;;;;;;188.33;54.17;;;;;;;;;;5051839;28;20936;-52
2023/08/05 05:30:51;;;;;;;185.87;52.57;;;;;;;;;;5050697;28;20475;-52
2023/08/05 05:33:17;;;;;;;187.40;53.10;;;;;;;;;;5052155;28;20428;-53
2023/08/05 05:35:43;;;;;;;188.70;54.27;;;;;;;;;;5052004;28;20486;-52
2023/08/05 05:38:09;;;;;;;187.57;53.67;;;;;;;;;;5045566;28;20519;-51
2023/08/05 05:40:39;;;;;;;188.73;54.17;;;;;;;;;;5051336;28;20419;-50
2023/08/05 05:43:06;;;;;;;190.05;54.88;;;;;;;;;;5052104;28;20405;-49
2023/08/05 05:45:33;;;;;;;189.75;54.33;;;;;;;;;;5051894;28;20174;-50
2023/08/05 05:47:59;;;;;;;188.82;53.58;;;;;;;;;;5052047;28;20171;-49
2023/08/05 05:50:25;;;;;;;190.27;54.80;;;;;;;;;;5051522;28;20217;-50
2023/08/05 05:52:53;;;;;;;189.17;54.27;;;;;;;;;;5051784;28;20405;-51
2023/08/05 05:55:19;;;;;;;188.85;54.15;;;;;;;;;;5051827;28;20410;-51
2023/08/05 05:57:45;;;;;;;188.25;54.03;;;;;;;;;;5051701;28;20244;-50
2023/08/05 06:00:11;;;;;;;189.38;54.75;;;;;;;;;;5051613;28;20203;-49
2023/08/05 06:02:37;;;;;;;190.25;54.70;;;;;;;;;;5051655;28;20175;-50
2023/08/05 06:05:03;;;;;;;190.47;54.50;;;;;;;;;;5051061;28;20167;-51
2023/08/05 06:07:29;;;;;;;191.05;55.28;;;;;;;;;;5051560;28;20424;-50
2023/08/05 06:09:55;;;;;;;192.83;56.93;;;;;;;;;;5051130;28;20202;-51
2023/08/05 06:12:24;;;;;;;190.93;54.87;;;;;;;;;;5051494;28;20401;-51
2023/08/05 06:14:50;;;;;;;187.48;53.08;;;;;;;;;;5051479;28;20404;-50
2023/08/05 06:17:17;;;;;;;190.10;55.50;;;;;;;;;;5051932;28;20180;-51
2023/08/05 06:19:43;;;;;;;193.02;57.13;;;;;;;;;;5048605;28;20466;-51
2023/08/05 06:22:09;;;;;;;191.98;56.80;;;;;;;;;;5041159;28;20835;-51
2023/08/05 06:24:35;;;;;;;190.33;55.37;;;;;;;;;;5051341;28;20696;-52
2023/08/05 06:27:00;;;;;;;189.87;54.87;;;;;;;;;;5051523;28;20927;-50
2023/08/05 06:29:27;;;;;;;192.27;55.77;;;;;;;;;;5050228;28;20952;-49
2023/08/05 06:31:53;;;;;;;192.40;56.05;;;;;;;;;;5048636;28;20436;-51
2023/08/05 06:34:21;;;;;;;189.90;54.10;;;;;;;;;;5051276;28;20183;-50
2023/08/05 06:36:47;;;;;;;193.23;55.97;;;;;;;;;;5051200;28;20778;-50
2023/08/05 06:39:13;;;;;;;192.30;55.50;;;;;;;;;;5051409;28;20201;-50
2023/08/05 06:41:38;;;;;;;191.00;54.47;;;;;;;;;;5050964;28;20422;-51
2023/08/05 06:44:04;;;;;;;193.97;56.37;;;;;;;;;;5051355;28;20404;-51
2023/08/05 06:46:31;;;;;;;192.87;56.03;;;;;;;;;;5051279;28;20434;-51
2023/08/05 06:48:57;;;;;;;194.60;57.88;;;;;;;;;;5051259;28;20439;-51
2023/08/05 06:51:23;;;;;;;193.25;57.13;;;;;;;;;;5050753;28;20210;-50
2023/08/05 06:53:49;;;;;;;193.02;56.17;;;;;;;;;;5051064;28;20173;-51
2023/08/05 06:56:15;;;;;;;190.45;54.13;;;;;;;;;;5050205;28;20720;-51
2023/08/05 06:58:42;;;;;;;192.97;56.30;;;;;;;;;;5051132;28;20280;-51
2023/08/05 07:01:09;;;;;;;193.48;56.60;;;;;;;;;;5050825;28;20539;-51
2023/08/05 07:03:35;;;;;;;191.18;55.83;;;;;;;;;;5051033;28;20213;-51
2023/08/05 07:06:01;;;;;;;194.77;58.67;;;;;;;;;;5051070;28;20173;-51
2023/08/05 07:08:28;;;;;;;192.77;56.80;;;;;;;;;;5051092;28;20416;-50
2023/08/05 07:10:54;;;;;;;189.27;54.10;;;;;;;;;;5049865;28;20954;-51
2023/08/05 07:13:20;;;;;;;192.57;56.63;;;;;;;;;;5051022;28;20205;-50
2023/08/05 07:15:46;;;;;;;192.77;56.57;;;;;;;;;;5051026;28;20187;-51
2023/08/05 07:18:12;;;;;;;192.20;57.33;;;;;;;;;;5048484;28;20986;-51
2023/08/05 07:20:41;;;;;;;194.37;57.60;;;;;;;;;;5043453;28;20422;-50
2023/08/05 07:23:07;;;;;;;192.25;56.38;;;;;;;;;;5050644;28;20853;-49
2023/08/05 07:25:33;;;;;;;191.97;56.40;;;;;;;;;;5049409;28;20274;-50
2023/08/05 07:27:59;;;;;;;192.87;58.93;;;;;;;;;;5055110;28;20921;-50
2023/08/05 07:30:25;;;;;;;191.60;55.87;;;;;;;;;;5050506;28;20517;-51
2023/08/05 07:32:51;;;;;;;192.47;56.10;;;;;;;;;;5054459;28;20807;-51
2023/08/05 07:35:17;;;;;;;193.43;56.83;;;;;;;;;;5054165;28;20425;-51
2023/08/05 07:37:43;;;;;;;192.57;56.23;;;;;;;;;;5053452;28;20434;-51
2023/08/05 07:40:12;;;;;;;197.80;61.27;;;;;;;;;;5052854;28;20445;-51
2023/08/05 07:42:42;;;;;;;193.95;58.15;;;;;;;;;;5053696;28;20930;-49
2023/08/05 07:45:11;;;;;;;194.48;58.47;;;;;;;;;;5054087;28;20171;-51
2023/08/05 07:47:41;;;;;;;195.70;58.63;;;;;;;;;;5052888;28;20245;-50
2023/08/05 07:50:07;;;;;;;193.52;57.85;;;;;;;;;;5053653;28;20202;-50
2023/08/05 07:52:34;;;;;;;194.63;57.75;;;;;;;;;;5053144;28;20670;-50
2023/08/05 07:55:00;;;;;;;194.50;59.47;;;;;;;;;;5054057;28;20648;-50
2023/08/05 07:57:26;;;;;;;193.82;57.88;;;;;;;;;;5053957;28;20176;-50
2023/08/05 07:59:52;;;;;;;196.37;60.40;;;;;;;;;;5053697;28;20689;-50
2023/08/05 08:02:18;;;;;;;194.88;58.28;;;;;;;;;;5053859;28;20393;-51
2023/08/05 08:04:44;;;;;;;194.50;59.27;;;;;;;;;;5053920;28;20519;-51
2023/08/05 08:07:11;;;;;;;192.57;57.10;;;;;;;;;;5054001;28;20412;-51
2023/08/05 08:09:37;;;;;;;194.10;58.17;;;;;;;;;;5053697;28;20421;-50
2023/08/05 08:12:03;;;;;;;192.47;56.47;;;;;;;;;;5053738;28;20460;-51
2023/08/05 08:14:29;;;;;;;194.93;59.53;;;;;;;;;;5053417;28;20413;-51
2023/08/05 08:16:55;;;;;;;194.13;57.80;;;;;;;;;;5054070;28;20464;-51
2023/08/05 08:19:22;;;;;;;196.80;60.07;;;;;;;;;;5053545;28;20456;-51
2023/08/05 08:21:48;;;;;;;195.27;59.17;;;;;;;;;;5053359;28;20436;-51
2023/08/05 08:24:14;;;;;;;194.73;60.58;;;;;;;;;;5053788;28;20597;-51
2023/08/05 08:26:40;;;;;;;195.97;60.20;;;;;;;;;;5053539;28;20209;-51
2023/08/05 08:29:06;;;;;;;193.03;58.70;;;;;;;;;;5053083;28;20481;-50
2023/08/05 08:31:33;;;;;;;195.70;62.47;;;;;;;;;;5053053;28;20584;-51
2023/08/05 08:33:59;;;;;;;193.73;58.07;;;;;;;;;;5053495;28;20402;-51
2023/08/05 08:36:25;;;;;;;194.13;60.27;;;;;;;;;;5053357;28;20409;-51
2023/08/05 08:38:51;;;;;;;193.17;58.37;;;;;;;;;;5048226;28;20460;-51
2023/08/05 08:41:18;;;;;;;194.63;60.27;;;;;;;;;;5052832;28;20432;-49
2023/08/05 08:43:45;;;;;;;195.30;61.63;;;;;;;;;;5053030;28;20901;-51
2023/08/05 08:46:12;;;;;;;193.60;60.37;;;;;;;;;;5053306;28;20418;-51
2023/08/05 08:48:38;;;;;;;194.03;59.13;;;;;;;;;;5052994;28;20886;-51
2023/08/05 08:51:04;;;;;;;193.67;59.57;;;;;;;;;;5052688;28;20452;-51
2023/08/05 08:53:32;;;;;;;197.60;62.97;;;;;;;;;;5053007;28;20405;-51
2023/08/05 08:55:58;;;;;;;196.03;64.00;;;;;;;;;;5053081;28;20501;-51
2023/08/05 08:58:24;;;;;;;197.50;63.10;;;;;;;;;;5052741;28;20461;-51
2023/08/05 09:00:50;;;;;;;197.53;62.03;;;;;;;;;;5052759;28;20433;-51
2023/08/05 09:03:18;;;;;;;198.13;62.43;;;;;;;;;;5052862;28;20488;-51
2023/08/05 09:05:46;;;;;;;196.80;62.60;;;;;;;;;;5052917;28;20451;-51
2023/08/05 09:08:12;;;;;;;200.17;64.57;;;;;;;;;;5052700;28;20413;-51
2023/08/05 09:10:39;;;;;;;197.37;63.43;;;;;;;;;;5052341;28;20433;-51
2023/08/05 09:13:08;;;;;;;196.83;64.37;;;;;;;;;;5052121;28;20406;-50
2023/08/05 09:15:36;;;;;;;197.60;62.80;;;;;;;;;;5052085;28;20402;-51
2023/08/05 09:18:05;;;;;;;198.50;64.13;;;;;;;;;;5052550;28;20416;-51
2023/08/05 09:20:37;;;;;;;197.23;63.30;;;;;;;;;;5052202;28;20438;-51
2023/08/05 09:23:05;;;;;;;196.10;64.53;;;;;;;;;;5052483;28;20800;-51
2023/08/05 09:25:32;;;;;;;200.60;68.07;;;;;;;;;;5052266;28;20419;-50
2023/08/05 09:27:59;;;;;;;197.07;63.53;;;;;;;;;;5050862;28;20417;-51
2023/08/05 09:30:26;;;;;;;195.20;62.53;;;;;;;;;;5052080;28;20452;-49
2023/08/05 09:32:55;;;;;;;198.80;66.10;;;;;;;;;;5052296;28;20467;-51
2023/08/05 09:35:21;;;;;;;197.07;63.97;;;;;;;;;;5052097;28;20405;-51
2023/08/05 09:37:48;;;;;;;195.90;62.97;;;;;;;;;;5049582;28;20402;-50
2023/08/05 09:40:18;;;;;;;203.93;68.93;;;;;;;;;;5043524;28;20518;-51
2023/08/05 09:42:50;;;;;;;196.10;63.50;;;;;;;;;;5050642;28;20993;-51
2023/08/05 09:45:17;;;;;;;198.90;66.67;;;;;;;;;;5051971;28;20420;-51
2023/08/05 09:47:46;;;;;;;199.20;64.33;;;;;;;;;;5052015;28;20459;-51
2023/08/05 09:50:13;;;;;;;199.40;65.40;;;;;;;;;;5051577;28;20450;-50
2023/08/05 09:52:39;;;;;;;199.40;66.17;;;;;;;;;;5051868;28;20904;-51
2023/08/05 09:55:15;;;;;;;198.03;63.03;;;;;;;;;;5050747;28;20412;-51
2023/08/05 09:57:42;;;;;;;201.73;68.70;;;;;;;;;;5052027;28;20493;-51
2023/08/05 10:00:10;;;;;;;198.60;64.97;;;;;;;;;;5051480;28;21035;-50
2023/08/05 10:02:37;;;;;;;200.60;67.70;;;;;;;;;;5051757;28;20428;-50
2023/08/05 10:05:03;;;;;;;198.03;64.17;;;;;;;;;;5051582;28;20886;-50
2023/08/05 10:07:29;;;;;;;200.97;69.37;;;;;;;;;;5051764;28;20438;-49
2023/08/05 10:09:55;;;;;;;201.93;69.03;;;;;;;;;;5051653;28;20443;-49
2023/08/05 10:12:32;;;;;;;199.47;66.33;;;;;;;;;;5051659;28;20944;-50
2023/08/05 10:14:59;;;;;;;199.73;66.57;;;;;;;;;;5051534;28;20401;-50
2023/08/05 10:17:26;;;;;;;202.87;72.83;;;;;;;;;;5051705;28;20405;-50
2023/08/05 10:19:52;;;;;;;205.73;74.13;;;;;;;;;;5051126;28;20475;-50
2023/08/05 10:22:25;;;;;;;199.63;68.70;;;;;;;;;;5051749;28;20823;-50
2023/08/05 10:24:51;;;;;;;201.27;70.33;;;;;;;;;;5051770;28;20417;-51
2023/08/05 10:27:17;;;;;;;198.90;64.37;;;;;;;;;;5051577;28;20424;-50
2023/08/05 10:29:52;;;;;;;202.57;72.40;;;;;;;;;;5051290;28;20419;-49
2023/08/05 10:32:27;;;;;;;198.53;66.50;;;;;;;;;;5051322;28;20417;-51
2023/08/05 10:35:11;;;;;;;199.53;69.33;;;;;;;;;;5051350;28;20401;-50
2023/08/05 10:37:50;;;;;;;201.10;71.73;;;;;;;;;;5051338;28;20416;-51
2023/08/05 10:40:34;;;;;;;200.13;71.00;;;;;;;;;;5051064;28;20517;-51
2023/08/05 10:43:00;;;;;;;200.10;71.27;;;;;;;;;;5048695;28;20443;-50
2023/08/05 10:45:26;;;;;;;201.77;76.07;;;;;;;;;;5032254;28;20997;-51
2023/08/05 10:47:53;;;;;;;200.90;71.83;;;;;;;;;;5033689;28;20422;-50
2023/08/05 10:50:19;;;;;;;202.43;71.37;;;;;;;;;;5047915;28;20536;-49
2023/08/05 10:52:45;;;;;;;200.07;70.77;;;;;;;;;;5054042;28;20862;-50
2023/08/05 10:55:14;;;;;;;203.33;74.73;;;;;;;;;;5054915;28;20437;-51
2023/08/05 10:57:40;;;;;;;199.83;71.10;;;;;;;;;;5055272;28;20963;-50
2023/08/05 11:00:07;;;;;;;202.67;72.63;;;;;;;;;;5054850;28;20496;-50
2023/08/05 11:02:33;;;;;;;200.70;70.57;;;;;;;;;;5055098;28;20409;-50
2023/08/05 11:05:09;;;;;;;200.30;70.07;;;;;;;;;;5055096;28;20484;-50
2023/08/05 11:07:38;;;;;;;200.63;70.33;;;;;;;;;;5054890;28;20399;-50
2023/08/05 11:10:05;;;;;;;199.40;69.40;;;;;;;;;;5054714;28;20432;-50
2023/08/05 11:12:31;;;;;;;199.23;71.90;;;;;;;;;;5054886;28;20405;-50
2023/08/05 11:14:57;;;;;;;199.20;71.60;;;;;;;;;;5054735;28;20431;-50
2023/08/05 11:17:23;;;;;;;199.00;70.63;;;;;;;;;;5054862;28;20412;-50
2023/08/05 11:19:53;;;;;;;207.00;79.27;;;;;;;;;;5054494;28;21053;-50
2023/08/05 11:22:28;;;;;;;199.97;69.97;;;;;;;;;;5054684;28;20866;-50
2023/08/05 11:25:01;;;;;;;199.03;68.87;;;;;;;;;;5054808;28;20389;-50
2023/08/05 11:27:32;;;;;;;198.77;67.50;;;;;;;;;;5055508;28;20408;-52
2023/08/05 11:29:58;;;;;;;199.30;68.50;;;;;;;;;;5054627;28;20417;-52
2023/08/05 11:32:24;;;;;;;198.47;68.90;;;;;;;;;;5054645;28;20424;-47
2023/08/05 11:34:50;;;;;;;201.17;68.87;;;;;;;;;;5054101;28;20413;-48
2023/08/05 11:37:17;;;;;;;201.87;70.43;;;;;;;;;;5054503;28;20771;-47
2023/08/05 11:39:43;;;;;;;200.10;67.70;;;;;;;;;;5054614;28;20517;-52
2023/08/05 11:42:10;;;;;;;198.27;64.67;;;;;;;;;;5054396;28;20420;-51
2023/08/05 11:44:36;;;;;;;197.30;63.63;;;;;;;;;;5054219;28;20400;-50
2023/08/05 11:47:03;;;;;;;195.97;63.37;;;;;;;;;;5052602;28;20400;-52
2023/08/05 11:49:29;;;;;;;197.07;64.47;;;;;;;;;;5051530;28;20998;-52
2023/08/05 11:51:55;;;;;;;198.87;67.53;;;;;;;;;;5050454;28;20447;-53
2023/08/05 11:54:32;;;;;;;197.87;66.17;;;;;;;;;;5052937;28;20419;-51
2023/08/05 11:56:58;;;;;;;198.60;69.07;;;;;;;;;;5054140;28;20920;-50
2023/08/05 11:59:43;;;;;;;198.97;69.47;;;;;;;;;;5053843;28;20447;-50
2023/08/05 12:02:12;;;;;;;199.30;68.47;;;;;;;;;;5053068;28;20417;-51
2023/08/05 12:04:48;;;;;;;196.97;65.73;;;;;;;;;;5052589;28;20428;-49
2023/08/05 12:07:16;;;;;;;195.00;64.00;;;;;;;;;;5053914;28;20413;-50
2023/08/05 12:09:42;;;;;;;199.47;67.33;;;;;;;;;;5053641;28;20800;-49
2023/08/05 12:12:18;;;;;;;195.40;61.57;;;;;;;;;;5053886;28;20408;-51
2023/08/05 12:14:44;;;;;;;197.13;64.50;;;;;;;;;;5046321;28;20404;-49
2023/08/05 12:17:11;;;;;;;195.53;62.70;;;;;;;;;;5052918;28;20424;-49
2023/08/05 12:19:40;;;;;;;198.37;66.53;;;;;;;;;;5053418;28;20534;-49
2023/08/05 12:22:06;;;;;;;194.37;62.73;;;;;;;;;;5049632;28;20448;-50
2023/08/05 12:24:32;;;;;;;193.47;61.10;;;;;;;;;;5048803;28;20914;-50
2023/08/05 12:26:58;;;;;;;197.37;65.27;;;;;;;;;;5053259;28;20412;-51
2023/08/05 12:29:23;;;;;;;194.03;61.90;;;;;;;;;;5052150;28;20900;-50
2023/08/05 12:31:49;;;;;;;195.53;62.57;;;;;;;;;;5053482;28;20511;-49
2023/08/05 12:34:17;;;;;;;201.17;70.00;;;;;;;;;;5052291;28;20432;-50
2023/08/05 12:36:44;;;;;;;197.43;65.80;;;;;;;;;;5052721;28;20417;-50
2023/08/05 12:39:10;;;;;;;197.17;66.07;;;;;;;;;;5047521;28;20457;-49
2023/08/05 12:41:36;;;;;;;193.07;60.77;;;;;;;;;;5052897;28;20967;-50
2023/08/05 12:44:01;;;;;;;195.90;63.87;;;;;;;;;;5052396;28;20992;-50
2023/08/05 12:46:27;;;;;;;196.30;63.20;;;;;;;;;;5053163;28;20908;-51
2023/08/05 12:48:53;;;;;;;197.20;65.20;;;;;;;;;;5053219;28;20950;-51
2023/08/05 12:51:19;;;;;;;197.70;65.47;;;;;;;;;;5052751;28;20960;-49
2023/08/05 12:53:45;;;;;;;195.03;63.43;;;;;;;;;;5052948;28;20984;-50
2023/08/05 12:56:11;;;;;;;197.43;66.87;;;;;;;;;;5052943;28;20775;-49
2023/08/05 12:58:37;;;;;;;193.80;62.80;;;;;;;;;;5052224;28;20881;-48
2023/08/05 13:01:03;;;;;;;195.80;63.30;;;;;;;;;;5052768;28;20840;-49
2023/08/05 13:03:29;;;;;;;197.07;66.20;;;;;;;;;;5052722;28;20989;-50
2023/08/05 13:05:56;;;;;;;195.70;64.40;;;;;;;;;;5052916;28;20493;-50
2023/08/05 13:08:21;;;;;;;196.37;66.50;;;;;;;;;;5052666;28;20415;-50
2023/08/05 13:10:48;;;;;;;197.40;66.67;;;;;;;;;;5052534;28;20571;-50
2023/08/05 13:13:13;;;;;;;199.67;69.13;;;;;;;;;;5051774;28;20424;-51
2023/08/05 13:15:39;;;;;;;193.47;62.27;;;;;;;;;;5052218;28;20417;-49
2023/08/05 13:18:05;;;;;;;197.13;64.90;;;;;;;;;;5052605;28;20420;-49
2023/08/05 13:20:31;;;;;;;196.73;66.57;;;;;;;;;;5052168;28;20436;-49
2023/08/05 13:22:57;;;;;;;197.87;65.73;;;;;;;;;;5051431;28;20413;-49
2023/08/05 13:25:23;;;;;;;197.97;68.83;;;;;;;;;;5052646;28;20432;-48
2023/08/05 13:27:49;;;;;;;195.43;63.60;;;;;;;;;;5052449;28;20396;-49
2023/08/05 13:30:15;;;;;;;197.47;64.93;;;;;;;;;;5052055;28;20468;-50
2023/08/05 13:32:41;;;;;;;196.83;66.33;;;;;;;;;;5052428;28;20428;-50
2023/08/05 13:35:07;;;;;;;197.60;68.23;;;;;;;;;;5052202;28;20412;-48
2023/08/05 13:37:34;;;;;;;199.20;70.37;;;;;;;;;;5050752;28;20953;-49
2023/08/05 13:40:00;;;;;;;195.40;63.93;;;;;;;;;;5051861;28;20479;-49
2023/08/05 13:42:26;;;;;;;201.10;69.00;;;;;;;;;;5052096;28;20494;-51
2023/08/05 13:44:52;;;;;;;194.83;61.77;;;;;;;;;;5052076;28;20733;-49
2023/08/05 13:47:18;;;;;;;198.97;68.30;;;;;;;;;;5052228;28;20408;-49
2023/08/05 13:49:44;;;;;;;198.97;67.60;;;;;;;;;;5051721;28;20846;-49
2023/08/05 13:52:10;;;;;;;196.83;66.53;;;;;;;;;;5051888;28;20419;-49
2023/08/05 13:54:36;;;;;;;195.13;62.83;;;;;;;;;;5051838;28;20500;-49
2023/08/05 13:57:02;;;;;;;194.67;62.57;;;;;;;;;;5051974;28;20421;-49
2023/08/05 13:59:28;;;;;;;195.27;62.03;;;;;;;;;;5051767;28;20872;-48
2023/08/05 14:01:54;;;;;;;196.70;63.70;;;;;;;;;;5051601;28;20476;-49